sensor_id;sensor_type;location;lat;lon;timestamp;P1;durP1;ratioP1;P2;durP2;ratioP2
23060;SDS011;11698;47.690;9.132;2022-08-23T00:01:06;5.00;;;2.70;;
23060;SDS011;11698;47.690;9.132;2022-08-23T00:03:32;4.65;;;2.70;;
23060;SDS011;11698;47.690;9.132;2022-08-23T00:05:59;4.63;;;2.83;;
23060;SDS011;11698;47.690;9.132;2022-08-23T00:08:25;4.57;;;2.67;;
23060;SDS011;11698;47.690;9.132;2022-08-23T00:10:51;3.17;;;2.53;;
23060;SDS011;11698;47.690;9.132;2022-08-23T00:13:17;3.72;;;2.70;;
23060;SDS011;11698;47.690;9.132;2022-08-23T00:15:43;5.13;;;2.95;;
23060;SDS011;11698;47.690;9.132;2022-08-23T00:18:09;3.83;;;2.40;;
23060;SDS011;11698;47.690;9.132;2022-08-23T00:20:35;3.83;;;2.67;;
23060;SDS011;11698;47.690;9.132;2022-08-23T00:23:01;6.57;;;2.93;;
23060;SDS011;11698;47.690;9.132;2022-08-23T00:25:27;4.30;;;2.83;;
23060;SDS011;11698;47.690;9.132;2022-08-23T00:27:53;4.13;;;2.72;;
23060;SDS011;11698;47.690;9.132;2022-08-23T00:30:19;4.47;;;2.70;;
23060;SDS011;11698;47.690;9.132;2022-08-23T00:32:45;3.53;;;2.60;;
23060;SDS011;11698;47.690;9.132;2022-08-23T00:35:12;4.30;;;2.83;;
23060;SDS011;11698;47.690;9.132;2022-08-23T00:37:38;4.67;;;2.70;;
23060;SDS011;11698;47.690;9.132;2022-08-23T00:40:05;4.70;;;2.85;;
23060;SDS011;11698;47.690;9.132;2022-08-23T00:45:22;3.60;;;2.87;;
23060;SDS011;11698;47.690;9.132;2022-08-23T00:48:09;5.88;;;2.75;;
23060;SDS011;11698;47.690;9.132;2022-08-23T00:50:48;4.40;;;2.70;;
23060;SDS011;11698;47.690;9.132;2022-08-23T00:55:43;4.90;;;3.00;;
23060;SDS011;11698;47.690;9.132;2022-08-23T00:58:10;3.83;;;2.90;;
23060;SDS011;11698;47.690;9.132;2022-08-23T01:00:37;4.85;;;2.83;;
23060;SDS011;11698;47.690;9.132;2022-08-23T01:03:04;4.18;;;2.83;;
23060;SDS011;11698;47.690;9.132;2022-08-23T01:05:35;5.32;;;3.08;;
23060;SDS011;11698;47.690;9.132;2022-08-23T01:08:06;4.40;;;3.03;;
23060;SDS011;11698;47.690;9.132;2022-08-23T01:10:36;3.00;;;2.70;;
23060;SDS011;11698;47.690;9.132;2022-08-23T01:13:08;4.85;;;3.00;;
23060;SDS011;11698;47.690;9.132;2022-08-23T01:15:40;3.00;;;2.65;;
23060;SDS011;11698;47.690;9.132;2022-08-23T01:18:08;5.60;;;3.10;;
23060;SDS011;11698;47.690;9.132;2022-08-23T01:20:38;4.45;;;3.50;;
23060;SDS011;11698;47.690;9.132;2022-08-23T01:23:52;4.95;;;3.22;;
23060;SDS011;11698;47.690;9.132;2022-08-23T01:25:52;5.75;;;3.20;;
23060;SDS011;11698;47.690;9.132;2022-08-23T01:28:18;3.40;;;3.03;;
23060;SDS011;11698;47.690;9.132;2022-08-23T01:30:44;4.40;;;3.10;;
23060;SDS011;11698;47.690;9.132;2022-08-23T01:33:12;4.22;;;2.85;;
23060;SDS011;11698;47.690;9.132;2022-08-23T01:35:40;3.47;;;3.05;;
23060;SDS011;11698;47.690;9.132;2022-08-23T01:38:07;4.22;;;3.15;;
23060;SDS011;11698;47.690;9.132;2022-08-23T01:40:34;4.78;;;3.33;;
23060;SDS011;11698;47.690;9.132;2022-08-23T01:43:00;5.18;;;2.95;;
23060;SDS011;11698;47.690;9.132;2022-08-23T01:45:27;3.65;;;3.13;;
23060;SDS011;11698;47.690;9.132;2022-08-23T01:47:53;4.80;;;3.20;;
23060;SDS011;11698;47.690;9.132;2022-08-23T01:50:19;4.15;;;3.10;;
23060;SDS011;11698;47.690;9.132;2022-08-23T01:52:45;4.28;;;3.20;;
23060;SDS011;11698;47.690;9.132;2022-08-23T01:55:11;4.78;;;3.00;;
23060;SDS011;11698;47.690;9.132;2022-08-23T01:57:38;5.10;;;3.40;;
23060;SDS011;11698;47.690;9.132;2022-08-23T02:00:05;3.77;;;3.40;;
23060;SDS011;11698;47.690;9.132;2022-08-23T02:02:31;3.60;;;2.90;;
23060;SDS011;11698;47.690;9.132;2022-08-23T02:04:57;4.95;;;3.20;;
23060;SDS011;11698;47.690;9.132;2022-08-23T02:07:27;6.00;;;3.20;;
23060;SDS011;11698;47.690;9.132;2022-08-23T02:09:53;3.90;;;3.25;;
23060;SDS011;11698;47.690;9.132;2022-08-23T02:12:19;4.97;;;3.22;;
23060;SDS011;11698;47.690;9.132;2022-08-23T02:14:46;4.82;;;3.20;;
23060;SDS011;11698;47.690;9.132;2022-08-23T02:17:12;4.72;;;3.50;;
23060;SDS011;11698;47.690;9.132;2022-08-23T02:19:40;3.90;;;3.22;;
23060;SDS011;11698;47.690;9.132;2022-08-23T02:22:06;4.38;;;3.28;;
23060;SDS011;11698;47.690;9.132;2022-08-23T02:24:33;5.80;;;3.55;;
23060;SDS011;11698;47.690;9.132;2022-08-23T02:27:02;7.20;;;3.63;;
23060;SDS011;11698;47.690;9.132;2022-08-23T02:29:29;4.15;;;3.17;;
23060;SDS011;11698;47.690;9.132;2022-08-23T02:31:56;3.95;;;3.30;;
23060;SDS011;11698;47.690;9.132;2022-08-23T02:34:22;4.22;;;3.28;;
23060;SDS011;11698;47.690;9.132;2022-08-23T02:36:49;3.17;;;2.87;;
23060;SDS011;11698;47.690;9.132;2022-08-23T02:39:15;4.78;;;3.40;;
23060;SDS011;11698;47.690;9.132;2022-08-23T02:41:42;3.50;;;3.20;;
23060;SDS011;11698;47.690;9.132;2022-08-23T02:44:09;4.50;;;3.47;;
23060;SDS011;11698;47.690;9.132;2022-08-23T02:46:35;5.03;;;3.10;;
23060;SDS011;11698;47.690;9.132;2022-08-23T02:49:02;4.00;;;3.60;;
23060;SDS011;11698;47.690;9.132;2022-08-23T02:51:29;4.15;;;3.08;;
23060;SDS011;11698;47.690;9.132;2022-08-23T02:53:55;4.85;;;3.33;;
23060;SDS011;11698;47.690;9.132;2022-08-23T02:56:21;4.77;;;3.53;;
23060;SDS011;11698;47.690;9.132;2022-08-23T02:58:48;4.32;;;3.50;;
23060;SDS011;11698;47.690;9.132;2022-08-23T03:01:18;5.00;;;3.70;;
23060;SDS011;11698;47.690;9.132;2022-08-23T03:03:45;4.40;;;3.87;;
23060;SDS011;11698;47.690;9.132;2022-08-23T03:06:12;5.72;;;3.67;;
23060;SDS011;11698;47.690;9.132;2022-08-23T03:08:38;3.92;;;3.40;;
23060;SDS011;11698;47.690;9.132;2022-08-23T03:11:09;5.10;;;3.42;;
23060;SDS011;11698;47.690;9.132;2022-08-23T03:13:35;5.35;;;3.90;;
23060;SDS011;11698;47.690;9.132;2022-08-23T03:16:02;4.82;;;3.90;;
23060;SDS011;11698;47.690;9.132;2022-08-23T03:18:28;5.22;;;3.50;;
23060;SDS011;11698;47.690;9.132;2022-08-23T03:20:54;4.70;;;3.50;;
23060;SDS011;11698;47.690;9.132;2022-08-23T03:23:20;4.80;;;3.60;;
23060;SDS011;11698;47.690;9.132;2022-08-23T03:25:46;4.32;;;3.47;;
23060;SDS011;11698;47.690;9.132;2022-08-23T03:28:12;5.78;;;3.65;;
23060;SDS011;11698;47.690;9.132;2022-08-23T03:30:38;5.40;;;3.70;;
23060;SDS011;11698;47.690;9.132;2022-08-23T03:33:04;4.78;;;3.65;;
23060;SDS011;11698;47.690;9.132;2022-08-23T03:35:30;4.80;;;4.15;;
23060;SDS011;11698;47.690;9.132;2022-08-23T03:37:56;4.15;;;3.75;;
23060;SDS011;11698;47.690;9.132;2022-08-23T03:40:22;6.90;;;4.22;;
23060;SDS011;11698;47.690;9.132;2022-08-23T03:42:49;4.20;;;3.80;;
23060;SDS011;11698;47.690;9.132;2022-08-23T03:45:16;4.63;;;3.75;;
23060;SDS011;11698;47.690;9.132;2022-08-23T03:47:42;6.25;;;4.18;;
23060;SDS011;11698;47.690;9.132;2022-08-23T03:50:08;6.25;;;3.70;;
23060;SDS011;11698;47.690;9.132;2022-08-23T03:52:35;6.35;;;3.70;;
23060;SDS011;11698;47.690;9.132;2022-08-23T03:55:01;6.90;;;3.95;;
23060;SDS011;11698;47.690;9.132;2022-08-23T03:57:27;5.18;;;3.80;;
23060;SDS011;11698;47.690;9.132;2022-08-23T03:59:53;5.23;;;3.70;;
23060;SDS011;11698;47.690;9.132;2022-08-23T04:02:19;4.43;;;3.80;;
23060;SDS011;11698;47.690;9.132;2022-08-23T04:04:45;4.90;;;3.88;;
23060;SDS011;11698;47.690;9.132;2022-08-23T04:07:11;4.45;;;4.05;;
23060;SDS011;11698;47.690;9.132;2022-08-23T04:09:37;4.97;;;3.63;;
23060;SDS011;11698;47.690;9.132;2022-08-23T04:12:03;5.32;;;4.13;;
23060;SDS011;11698;47.690;9.132;2022-08-23T04:14:30;4.63;;;4.20;;
23060;SDS011;11698;47.690;9.132;2022-08-23T04:16:56;4.40;;;3.65;;
23060;SDS011;11698;47.690;9.132;2022-08-23T04:19:22;7.40;;;4.20;;
23060;SDS011;11698;47.690;9.132;2022-08-23T04:21:48;6.03;;;4.22;;
23060;SDS011;11698;47.690;9.132;2022-08-23T04:24:16;5.20;;;3.97;;
23060;SDS011;11698;47.690;9.132;2022-08-23T04:26:43;8.23;;;4.40;;
23060;SDS011;11698;47.690;9.132;2022-08-23T04:29:09;6.07;;;4.20;;
23060;SDS011;11698;47.690;9.132;2022-08-23T04:31:38;6.80;;;4.07;;
23060;SDS011;11698;47.690;9.132;2022-08-23T04:34:04;6.37;;;4.00;;
23060;SDS011;11698;47.690;9.132;2022-08-23T04:36:31;5.63;;;4.10;;
23060;SDS011;11698;47.690;9.132;2022-08-23T04:38:58;5.13;;;3.85;;
23060;SDS011;11698;47.690;9.132;2022-08-23T04:41:24;5.90;;;4.07;;
23060;SDS011;11698;47.690;9.132;2022-08-23T04:44:16;6.22;;;4.32;;
23060;SDS011;11698;47.690;9.132;2022-08-23T04:46:42;5.22;;;4.03;;
23060;SDS011;11698;47.690;9.132;2022-08-23T04:49:09;5.10;;;3.90;;
23060;SDS011;11698;47.690;9.132;2022-08-23T04:51:35;5.90;;;3.90;;
23060;SDS011;11698;47.690;9.132;2022-08-23T04:54:01;5.05;;;3.67;;
23060;SDS011;11698;47.690;9.132;2022-08-23T04:56:28;4.63;;;3.90;;
23060;SDS011;11698;47.690;9.132;2022-08-23T04:58:54;6.97;;;4.10;;
23060;SDS011;11698;47.690;9.132;2022-08-23T05:01:20;5.65;;;3.97;;
23060;SDS011;11698;47.690;9.132;2022-08-23T05:03:49;4.65;;;3.97;;
23060;SDS011;11698;47.690;9.132;2022-08-23T05:06:15;4.78;;;3.85;;
23060;SDS011;11698;47.690;9.132;2022-08-23T05:08:41;6.32;;;3.92;;
23060;SDS011;11698;47.690;9.132;2022-08-23T05:11:07;4.72;;;3.75;;
23060;SDS011;11698;47.690;9.132;2022-08-23T05:13:34;5.25;;;4.03;;
23060;SDS011;11698;47.690;9.132;2022-08-23T05:16:00;5.78;;;4.30;;
23060;SDS011;11698;47.690;9.132;2022-08-23T05:18:26;5.50;;;4.07;;
23060;SDS011;11698;47.690;9.132;2022-08-23T05:20:52;4.57;;;4.00;;
23060;SDS011;11698;47.690;9.132;2022-08-23T05:23:19;5.43;;;3.90;;
23060;SDS011;11698;47.690;9.132;2022-08-23T05:25:45;4.30;;;3.88;;
23060;SDS011;11698;47.690;9.132;2022-08-23T05:30:43;5.65;;;4.07;;
23060;SDS011;11698;47.690;9.132;2022-08-23T05:33:10;4.97;;;3.87;;
23060;SDS011;11698;47.690;9.132;2022-08-23T05:35:36;5.82;;;3.78;;
23060;SDS011;11698;47.690;9.132;2022-08-23T05:38:04;6.38;;;3.97;;
23060;SDS011;11698;47.690;9.132;2022-08-23T05:40:30;4.15;;;3.70;;
23060;SDS011;11698;47.690;9.132;2022-08-23T05:42:56;4.40;;;3.88;;
23060;SDS011;11698;47.690;9.132;2022-08-23T05:45:22;5.23;;;4.00;;
23060;SDS011;11698;47.690;9.132;2022-08-23T05:47:48;4.77;;;4.17;;
23060;SDS011;11698;47.690;9.132;2022-08-23T05:50:14;4.45;;;3.85;;
23060;SDS011;11698;47.690;9.132;2022-08-23T05:52:40;4.68;;;4.13;;
23060;SDS011;11698;47.690;9.132;2022-08-23T05:55:06;6.05;;;4.07;;
23060;SDS011;11698;47.690;9.132;2022-08-23T05:57:33;4.57;;;4.15;;
23060;SDS011;11698;47.690;9.132;2022-08-23T06:00:00;5.15;;;4.30;;
23060;SDS011;11698;47.690;9.132;2022-08-23T06:02:26;5.30;;;4.72;;
23060;SDS011;11698;47.690;9.132;2022-08-23T06:04:52;4.53;;;3.83;;
23060;SDS011;11698;47.690;9.132;2022-08-23T06:07:18;4.22;;;3.83;;
23060;SDS011;11698;47.690;9.132;2022-08-23T06:09:44;5.68;;;4.50;;
23060;SDS011;11698;47.690;9.132;2022-08-23T06:12:10;6.03;;;4.15;;
23060;SDS011;11698;47.690;9.132;2022-08-23T06:14:36;7.03;;;4.20;;
23060;SDS011;11698;47.690;9.132;2022-08-23T06:17:02;4.68;;;4.18;;
23060;SDS011;11698;47.690;9.132;2022-08-23T06:19:29;8.20;;;4.32;;
23060;SDS011;11698;47.690;9.132;2022-08-23T06:21:55;5.53;;;4.40;;
23060;SDS011;11698;47.690;9.132;2022-08-23T06:24:21;6.35;;;4.35;;
23060;SDS011;11698;47.690;9.132;2022-08-23T06:26:47;4.80;;;4.30;;
23060;SDS011;11698;47.690;9.132;2022-08-23T06:29:14;5.43;;;4.00;;
23060;SDS011;11698;47.690;9.132;2022-08-23T06:31:41;6.07;;;4.37;;
23060;SDS011;11698;47.690;9.132;2022-08-23T06:36:53;5.63;;;4.30;;
23060;SDS011;11698;47.690;9.132;2022-08-23T06:39:21;5.70;;;4.00;;
23060;SDS011;11698;47.690;9.132;2022-08-23T06:41:47;5.88;;;4.20;;
23060;SDS011;11698;47.690;9.132;2022-08-23T06:44:14;6.00;;;4.30;;
23060;SDS011;11698;47.690;9.132;2022-08-23T06:46:40;6.43;;;4.38;;
23060;SDS011;11698;47.690;9.132;2022-08-23T06:49:07;6.03;;;4.15;;
23060;SDS011;11698;47.690;9.132;2022-08-23T06:54:04;5.63;;;4.20;;
23060;SDS011;11698;47.690;9.132;2022-08-23T06:56:31;5.53;;;4.05;;
23060;SDS011;11698;47.690;9.132;2022-08-23T06:58:57;5.07;;;3.95;;
23060;SDS011;11698;47.690;9.132;2022-08-23T07:03:55;7.30;;;4.22;;
23060;SDS011;11698;47.690;9.132;2022-08-23T07:06:22;4.20;;;3.80;;
23060;SDS011;11698;47.690;9.132;2022-08-23T07:08:48;4.67;;;3.53;;
23060;SDS011;11698;47.690;9.132;2022-08-23T07:11:14;4.50;;;3.97;;
23060;SDS011;11698;47.690;9.132;2022-08-23T07:13:41;6.88;;;4.15;;
23060;SDS011;11698;47.690;9.132;2022-08-23T07:16:07;5.50;;;3.78;;
23060;SDS011;11698;47.690;9.132;2022-08-23T07:18:33;5.25;;;3.90;;
23060;SDS011;11698;47.690;9.132;2022-08-23T07:21:00;5.30;;;3.73;;
23060;SDS011;11698;47.690;9.132;2022-08-23T07:23:27;5.40;;;3.85;;
23060;SDS011;11698;47.690;9.132;2022-08-23T07:25:55;5.50;;;3.80;;
23060;SDS011;11698;47.690;9.132;2022-08-23T07:28:21;5.45;;;3.60;;
23060;SDS011;11698;47.690;9.132;2022-08-23T07:30:47;4.50;;;3.55;;
23060;SDS011;11698;47.690;9.132;2022-08-23T07:33:13;4.23;;;3.60;;
23060;SDS011;11698;47.690;9.132;2022-08-23T07:35:45;3.97;;;3.67;;
23060;SDS011;11698;47.690;9.132;2022-08-23T07:38:12;5.68;;;3.72;;
23060;SDS011;11698;47.690;9.132;2022-08-23T07:40:38;5.53;;;3.65;;
23060;SDS011;11698;47.690;9.132;2022-08-23T07:43:04;5.40;;;3.77;;
23060;SDS011;11698;47.690;9.132;2022-08-23T07:45:30;4.80;;;3.70;;
23060;SDS011;11698;47.690;9.132;2022-08-23T07:47:56;5.47;;;4.13;;
23060;SDS011;11698;47.690;9.132;2022-08-23T07:50:22;5.15;;;4.05;;
23060;SDS011;11698;47.690;9.132;2022-08-23T07:52:48;4.10;;;3.70;;
23060;SDS011;11698;47.690;9.132;2022-08-23T07:55:14;4.82;;;3.75;;
23060;SDS011;11698;47.690;9.132;2022-08-23T07:57:40;8.55;;;3.83;;
23060;SDS011;11698;47.690;9.132;2022-08-23T08:00:06;4.97;;;3.70;;
23060;SDS011;11698;47.690;9.132;2022-08-23T08:02:32;5.20;;;4.00;;
23060;SDS011;11698;47.690;9.132;2022-08-23T08:04:58;5.00;;;3.63;;
23060;SDS011;11698;47.690;9.132;2022-08-23T08:07:24;3.70;;;3.40;;
23060;SDS011;11698;47.690;9.132;2022-08-23T08:09:51;4.95;;;3.60;;
23060;SDS011;11698;47.690;9.132;2022-08-23T08:12:17;5.97;;;3.70;;
23060;SDS011;11698;47.690;9.132;2022-08-23T08:14:44;4.03;;;3.55;;
23060;SDS011;11698;47.690;9.132;2022-08-23T08:17:12;3.40;;;3.10;;
23060;SDS011;11698;47.690;9.132;2022-08-23T08:19:38;4.10;;;3.33;;
23060;SDS011;11698;47.690;9.132;2022-08-23T08:22:05;4.55;;;3.22;;
23060;SDS011;11698;47.690;9.132;2022-08-23T08:24:31;4.00;;;3.10;;
23060;SDS011;11698;47.690;9.132;2022-08-23T08:26:57;4.60;;;3.30;;
23060;SDS011;11698;47.690;9.132;2022-08-23T08:29:23;4.40;;;3.33;;
23060;SDS011;11698;47.690;9.132;2022-08-23T08:31:49;4.23;;;3.17;;
23060;SDS011;11698;47.690;9.132;2022-08-23T08:34:16;4.72;;;3.08;;
23060;SDS011;11698;47.690;9.132;2022-08-23T08:36:47;5.00;;;3.20;;
23060;SDS011;11698;47.690;9.132;2022-08-23T08:39:14;4.68;;;3.50;;
23060;SDS011;11698;47.690;9.132;2022-08-23T08:46:43;4.27;;;3.20;;
23060;SDS011;11698;47.690;9.132;2022-08-23T08:49:10;4.95;;;3.40;;
23060;SDS011;11698;47.690;9.132;2022-08-23T08:54:05;4.55;;;3.10;;
23060;SDS011;11698;47.690;9.132;2022-08-23T08:56:33;5.60;;;3.40;;
23060;SDS011;11698;47.690;9.132;2022-08-23T08:59:01;3.75;;;2.97;;
23060;SDS011;11698;47.690;9.132;2022-08-23T09:01:28;4.45;;;3.40;;
23060;SDS011;11698;47.690;9.132;2022-08-23T09:03:54;3.92;;;3.00;;
23060;SDS011;11698;47.690;9.132;2022-08-23T09:06:22;4.20;;;3.00;;
23060;SDS011;11698;47.690;9.132;2022-08-23T09:19:02;3.67;;;3.22;;
23060;SDS011;11698;47.690;9.132;2022-08-23T09:21:48;4.55;;;2.95;;
23060;SDS011;11698;47.690;9.132;2022-08-23T09:24:15;4.68;;;3.28;;
23060;SDS011;11698;47.690;9.132;2022-08-23T09:26:41;3.40;;;3.10;;
23060;SDS011;11698;47.690;9.132;2022-08-23T09:31:47;4.13;;;2.92;;
23060;SDS011;11698;47.690;9.132;2022-08-23T09:35:03;3.90;;;3.08;;
23060;SDS011;11698;47.690;9.132;2022-08-23T09:39:40;4.90;;;3.07;;
23060;SDS011;11698;47.690;9.132;2022-08-23T09:43:00;4.47;;;2.88;;
23060;SDS011;11698;47.690;9.132;2022-08-23T09:44:53;6.55;;;3.13;;
23060;SDS011;11698;47.690;9.132;2022-08-23T09:47:20;4.30;;;2.83;;
23060;SDS011;11698;47.690;9.132;2022-08-23T09:49:55;4.00;;;2.70;;
23060;SDS011;11698;47.690;9.132;2022-08-23T09:52:32;4.03;;;3.03;;
23060;SDS011;11698;47.690;9.132;2022-08-23T09:55:00;3.50;;;2.80;;
23060;SDS011;11698;47.690;9.132;2022-08-23T09:57:28;5.07;;;2.97;;
23060;SDS011;11698;47.690;9.132;2022-08-23T09:59:59;2.80;;;2.50;;
23060;SDS011;11698;47.690;9.132;2022-08-23T10:02:27;3.80;;;2.70;;
23060;SDS011;11698;47.690;9.132;2022-08-23T10:04:56;3.00;;;2.40;;
23060;SDS011;11698;47.690;9.132;2022-08-23T10:07:32;3.17;;;2.00;;
23060;SDS011;11698;47.690;9.132;2022-08-23T10:10:12;3.80;;;2.17;;
23060;SDS011;11698;47.690;9.132;2022-08-23T10:12:38;2.25;;;1.90;;
23060;SDS011;11698;47.690;9.132;2022-08-23T10:15:04;3.30;;;1.83;;
23060;SDS011;11698;47.690;9.132;2022-08-23T10:20:33;3.25;;;2.00;;
23060;SDS011;11698;47.690;9.132;2022-08-23T10:25:56;3.40;;;1.93;;
23060;SDS011;11698;47.690;9.132;2022-08-23T10:33:47;3.10;;;1.80;;
23060;SDS011;11698;47.690;9.132;2022-08-23T10:41:27;3.38;;;1.58;;
23060;SDS011;11698;47.690;9.132;2022-08-23T10:46:23;3.60;;;1.70;;
23060;SDS011;11698;47.690;9.132;2022-08-23T10:48:58;2.35;;;1.50;;
23060;SDS011;11698;47.690;9.132;2022-08-23T10:51:26;2.92;;;1.88;;
23060;SDS011;11698;47.690;9.132;2022-08-23T10:56:25;2.67;;;1.55;;
23060;SDS011;11698;47.690;9.132;2022-08-23T10:58:52;2.05;;;1.40;;
23060;SDS011;11698;47.690;9.132;2022-08-23T11:01:23;3.35;;;1.45;;
23060;SDS011;11698;47.690;9.132;2022-08-23T11:06:41;1.88;;;1.33;;
23060;SDS011;11698;47.690;9.132;2022-08-23T11:11:47;1.52;;;1.42;;
23060;SDS011;11698;47.690;9.132;2022-08-23T11:14:33;2.40;;;1.40;;
23060;SDS011;11698;47.690;9.132;2022-08-23T11:17:02;2.58;;;1.25;;
23060;SDS011;11698;47.690;9.132;2022-08-23T11:19:46;2.72;;;1.33;;
23060;SDS011;11698;47.690;9.132;2022-08-23T11:22:22;2.42;;;1.45;;
23060;SDS011;11698;47.690;9.132;2022-08-23T11:24:56;2.53;;;1.33;;
23060;SDS011;11698;47.690;9.132;2022-08-23T11:30:28;2.47;;;1.50;;
23060;SDS011;11698;47.690;9.132;2022-08-23T11:32:44;2.00;;;1.40;;
23060;SDS011;11698;47.690;9.132;2022-08-23T11:35:27;2.22;;;1.20;;
23060;SDS011;11698;47.690;9.132;2022-08-23T11:38:00;4.15;;;1.70;;
23060;SDS011;11698;47.690;9.132;2022-08-23T11:43:08;1.50;;;1.15;;
23060;SDS011;11698;47.690;9.132;2022-08-23T11:48:37;3.03;;;1.20;;
23060;SDS011;11698;47.690;9.132;2022-08-23T12:01:10;4.57;;;1.20;;
23060;SDS011;11698;47.690;9.132;2022-08-23T12:11:10;1.73;;;1.20;;
23060;SDS011;11698;47.690;9.132;2022-08-23T12:14:30;2.45;;;0.98;;
23060;SDS011;11698;47.690;9.132;2022-08-23T12:16:30;1.25;;;1.00;;
23060;SDS011;11698;47.690;9.132;2022-08-23T12:18:59;1.65;;;1.13;;
23060;SDS011;11698;47.690;9.132;2022-08-23T12:24:12;2.80;;;1.30;;
23060;SDS011;11698;47.690;9.132;2022-08-23T12:34:41;2.20;;;1.05;;
23060;SDS011;11698;47.690;9.132;2022-08-23T12:39:51;3.38;;;1.10;;
23060;SDS011;11698;47.690;9.132;2022-08-23T12:45:03;1.95;;;1.20;;
23060;SDS011;11698;47.690;9.132;2022-08-23T12:47:30;1.50;;;1.10;;
23060;SDS011;11698;47.690;9.132;2022-08-23T12:52:37;2.38;;;1.05;;
23060;SDS011;11698;47.690;9.132;2022-08-23T12:55:22;2.15;;;1.33;;
23060;SDS011;11698;47.690;9.132;2022-08-23T12:57:53;1.33;;;1.13;;
23060;SDS011;11698;47.690;9.132;2022-08-23T13:00:30;1.33;;;1.23;;
23060;SDS011;11698;47.690;9.132;2022-08-23T13:03:00;1.60;;;1.13;;
23060;SDS011;11698;47.690;9.132;2022-08-23T13:05:42;2.50;;;1.20;;
23060;SDS011;11698;47.690;9.132;2022-08-23T13:08:17;2.33;;;1.20;;
23060;SDS011;11698;47.690;9.132;2022-08-23T13:10:44;1.73;;;1.25;;
23060;SDS011;11698;47.690;9.132;2022-08-23T13:13:12;1.90;;;1.20;;
23060;SDS011;11698;47.690;9.132;2022-08-23T13:15:44;2.00;;;1.20;;
23060;SDS011;11698;47.690;9.132;2022-08-23T13:18:21;2.23;;;1.20;;
23060;SDS011;11698;47.690;9.132;2022-08-23T13:20:48;1.55;;;1.15;;
23060;SDS011;11698;47.690;9.132;2022-08-23T13:23:14;1.93;;;1.23;;
23060;SDS011;11698;47.690;9.132;2022-08-23T13:25:52;1.63;;;1.30;;
23060;SDS011;11698;47.690;9.132;2022-08-23T13:28:24;2.72;;;1.20;;
23060;SDS011;11698;47.690;9.132;2022-08-23T13:31:04;2.47;;;1.00;;
23060;SDS011;11698;47.690;9.132;2022-08-23T13:33:32;2.00;;;1.20;;
23060;SDS011;11698;47.690;9.132;2022-08-23T13:36:15;1.10;;;1.00;;
23060;SDS011;11698;47.690;9.132;2022-08-23T13:38:42;1.60;;;1.00;;
23060;SDS011;11698;47.690;9.132;2022-08-23T13:41:09;1.50;;;0.98;;
23060;SDS011;11698;47.690;9.132;2022-08-23T13:43:38;2.25;;;1.20;;
23060;SDS011;11698;47.690;9.132;2022-08-23T13:49:25;1.65;;;1.10;;
23060;SDS011;11698;47.690;9.132;2022-08-23T13:51:32;1.60;;;0.95;;
23060;SDS011;11698;47.690;9.132;2022-08-23T13:53:59;1.87;;;1.00;;
23060;SDS011;11698;47.690;9.132;2022-08-23T13:56:26;2.33;;;1.20;;
23060;SDS011;11698;47.690;9.132;2022-08-23T13:58:57;1.30;;;0.90;;
23060;SDS011;11698;47.690;9.132;2022-08-23T14:01:24;1.23;;;1.10;;
23060;SDS011;11698;47.690;9.132;2022-08-23T14:03:51;2.20;;;0.90;;
23060;SDS011;11698;47.690;9.132;2022-08-23T14:06:17;1.67;;;0.95;;
23060;SDS011;11698;47.690;9.132;2022-08-23T14:08:43;1.00;;;0.90;;
23060;SDS011;11698;47.690;9.132;2022-08-23T14:11:10;1.73;;;1.10;;
23060;SDS011;11698;47.690;9.132;2022-08-23T14:13:38;1.52;;;0.90;;
23060;SDS011;11698;47.690;9.132;2022-08-23T14:16:05;2.40;;;1.03;;
23060;SDS011;11698;47.690;9.132;2022-08-23T14:18:32;1.55;;;0.90;;
23060;SDS011;11698;47.690;9.132;2022-08-23T14:20:58;1.20;;;0.97;;
23060;SDS011;11698;47.690;9.132;2022-08-23T14:23:25;1.30;;;0.93;;
23060;SDS011;11698;47.690;9.132;2022-08-23T14:25:53;1.10;;;0.93;;
23060;SDS011;11698;47.690;9.132;2022-08-23T14:28:20;0.90;;;0.80;;
23060;SDS011;11698;47.690;9.132;2022-08-23T14:30:47;1.50;;;0.98;;
23060;SDS011;11698;47.690;9.132;2022-08-23T14:33:13;1.65;;;1.05;;
23060;SDS011;11698;47.690;9.132;2022-08-23T14:35:39;1.00;;;0.75;;
23060;SDS011;11698;47.690;9.132;2022-08-23T14:38:05;1.80;;;1.00;;
23060;SDS011;11698;47.690;9.132;2022-08-23T14:40:32;1.77;;;0.90;;
23060;SDS011;11698;47.690;9.132;2022-08-23T14:42:59;1.60;;;0.90;;
23060;SDS011;11698;47.690;9.132;2022-08-23T14:45:25;1.17;;;0.93;;
23060;SDS011;11698;47.690;9.132;2022-08-23T14:47:51;0.90;;;0.77;;
23060;SDS011;11698;47.690;9.132;2022-08-23T14:50:17;1.63;;;0.90;;
23060;SDS011;11698;47.690;9.132;2022-08-23T14:52:44;2.10;;;0.97;;
23060;SDS011;11698;47.690;9.132;2022-08-23T14:55:11;1.73;;;1.00;;
23060;SDS011;11698;47.690;9.132;2022-08-23T14:57:38;2.23;;;1.10;;
23060;SDS011;11698;47.690;9.132;2022-08-23T15:00:05;1.30;;;1.07;;
23060;SDS011;11698;47.690;9.132;2022-08-23T15:02:32;1.83;;;1.10;;
23060;SDS011;11698;47.690;9.132;2022-08-23T15:05:00;1.52;;;1.10;;
23060;SDS011;11698;47.690;9.132;2022-08-23T15:07:27;1.23;;;1.03;;
23060;SDS011;11698;47.690;9.132;2022-08-23T15:09:53;2.03;;;1.10;;
23060;SDS011;11698;47.690;9.132;2022-08-23T15:12:19;2.22;;;1.15;;
23060;SDS011;11698;47.690;9.132;2022-08-23T15:14:45;1.63;;;1.00;;
23060;SDS011;11698;47.690;9.132;2022-08-23T15:17:11;1.30;;;1.20;;
23060;SDS011;11698;47.690;9.132;2022-08-23T15:19:37;2.10;;;1.20;;
23060;SDS011;11698;47.690;9.132;2022-08-23T15:22:03;1.88;;;1.08;;
23060;SDS011;11698;47.690;9.132;2022-08-23T15:24:30;1.55;;;1.10;;
23060;SDS011;11698;47.690;9.132;2022-08-23T15:26:57;1.83;;;1.20;;
23060;SDS011;11698;47.690;9.132;2022-08-23T15:29:24;2.00;;;1.30;;
23060;SDS011;11698;47.690;9.132;2022-08-23T15:31:50;1.63;;;1.15;;
23060;SDS011;11698;47.690;9.132;2022-08-23T15:34:16;1.92;;;1.15;;
23060;SDS011;11698;47.690;9.132;2022-08-23T15:36:42;1.47;;;1.07;;
23060;SDS011;11698;47.690;9.132;2022-08-23T15:39:08;2.33;;;1.13;;
23060;SDS011;11698;47.690;9.132;2022-08-23T15:41:34;1.73;;;1.10;;
23060;SDS011;11698;47.690;9.132;2022-08-23T15:44:00;1.90;;;1.10;;
23060;SDS011;11698;47.690;9.132;2022-08-23T15:46:26;2.33;;;1.30;;
23060;SDS011;11698;47.690;9.132;2022-08-23T15:49:26;2.20;;;1.10;;
23060;SDS011;11698;47.690;9.132;2022-08-23T15:51:45;1.60;;;1.00;;
23060;SDS011;11698;47.690;9.132;2022-08-23T15:54:11;2.55;;;1.10;;
23060;SDS011;11698;47.690;9.132;2022-08-23T15:56:41;1.37;;;1.20;;
23060;SDS011;11698;47.690;9.132;2022-08-23T15:59:14;1.83;;;1.00;;
23060;SDS011;11698;47.690;9.132;2022-08-23T16:01:41;2.30;;;1.20;;
23060;SDS011;11698;47.690;9.132;2022-08-23T16:04:08;1.88;;;1.05;;
23060;SDS011;11698;47.690;9.132;2022-08-23T16:06:35;1.75;;;1.02;;
23060;SDS011;11698;47.690;9.132;2022-08-23T16:09:01;2.67;;;1.30;;
23060;SDS011;11698;47.690;9.132;2022-08-23T16:11:28;1.57;;;1.03;;
23060;SDS011;11698;47.690;9.132;2022-08-23T16:13:55;1.65;;;1.02;;
23060;SDS011;11698;47.690;9.132;2022-08-23T16:16:23;1.67;;;1.30;;
23060;SDS011;11698;47.690;9.132;2022-08-23T16:18:50;2.35;;;1.00;;
23060;SDS011;11698;47.690;9.132;2022-08-23T16:21:20;1.08;;;1.00;;
23060;SDS011;11698;47.690;9.132;2022-08-23T16:23:47;2.00;;;1.10;;
23060;SDS011;11698;47.690;9.132;2022-08-23T16:26:15;1.40;;;1.10;;
23060;SDS011;11698;47.690;9.132;2022-08-23T16:28:43;1.83;;;1.03;;
23060;SDS011;11698;47.690;9.132;2022-08-23T16:31:09;2.10;;;1.70;;
23060;SDS011;11698;47.690;9.132;2022-08-23T16:33:36;1.43;;;1.10;;
23060;SDS011;11698;47.690;9.132;2022-08-23T16:36:02;1.90;;;1.33;;
23060;SDS011;11698;47.690;9.132;2022-08-23T16:38:29;1.63;;;1.00;;
23060;SDS011;11698;47.690;9.132;2022-08-23T16:40:55;1.30;;;1.05;;
23060;SDS011;11698;47.690;9.132;2022-08-23T16:43:21;2.17;;;1.23;;
23060;SDS011;11698;47.690;9.132;2022-08-23T16:45:47;1.42;;;0.98;;